Time;durP1;ratioP1;P1;durP2;ratioP2;P2;SDS_P1;SDS_P2;PMS_P1;PMS_P2;Temp;Humidity;BMP_temperature;BMP_pressure;BME280_temperature;BME280_humidity;BME280_pressure;Samples;Min_cycle;Max_cycle;Signal;HPM_P1;HPM_P2
2023/01/22 00:01:21;;;;;;;0.30;0.30;;;-0.80;99.90;;;;;;5095154;28;20472;-82
2023/01/22 00:03:48;;;;;;;0.30;0.30;;;-0.90;99.90;;;;;;5094941;28;20540;-82
2023/01/22 00:06:16;;;;;;;0.33;0.33;;;-0.90;99.90;;;;;;5094747;28;20484;-82
2023/01/22 00:08:43;;;;;;;0.30;0.30;;;-0.90;99.90;;;;;;5094527;28;20404;-82
2023/01/22 00:11:11;;;;;;;0.30;0.30;;;-0.90;99.90;;;;;;5094623;28;20451;-82
2023/01/22 00:13:38;;;;;;;0.30;0.30;;;-0.80;99.90;;;;;;5096569;28;20472;-82
2023/01/22 00:16:06;;;;;;;0.30;0.30;;;-0.90;99.90;;;;;;5094830;28;20461;-83
2023/01/22 00:18:33;;;;;;;0.30;0.23;;;-0.90;99.90;;;;;;5094445;28;20419;-82
2023/01/22 00:21:00;;;;;;;0.30;0.30;;;-0.90;99.90;;;;;;5094510;28;20455;-82
2023/01/22 00:23:28;;;;;;;0.30;0.30;;;-0.90;99.90;;;;;;5094328;28;20493;-82
2023/01/22 00:26:00;;;;;;;1.07;0.60;;;-0.90;99.90;;;;;;5094071;28;20492;-82
2023/01/22 00:28:27;;;;;;;1.03;0.70;;;-0.90;99.90;;;;;;5094191;28;20437;-82
2023/01/22 00:30:57;;;;;;;0.30;0.30;;;-0.80;99.90;;;;;;5094088;28;20449;-82
2023/01/22 00:33:24;;;;;;;2.13;0.57;;;-0.80;99.90;;;;;;5093977;28;20452;-82
2023/01/22 00:35:50;;;;;;;0.30;0.30;;;-0.90;99.90;;;;;;5093978;28;20472;-82
2023/01/22 00:38:17;;;;;;;2.00;0.50;;;-0.80;99.90;;;;;;5093879;28;20451;-82
2023/01/22 00:40:45;;;;;;;7.00;0.67;;;-0.80;99.90;;;;;;5093920;28;20448;-82
2023/01/22 00:43:12;;;;;;;0.30;0.30;;;-0.80;99.90;;;;;;5093957;28;20445;-82
2023/01/22 00:45:39;;;;;;;0.30;0.30;;;-0.80;99.90;;;;;;5093631;28;20484;-82
2023/01/22 00:48:06;;;;;;;0.30;0.20;;;-0.80;99.90;;;;;;5093659;28;20444;-82
2023/01/22 00:50:33;;;;;;;0.50;0.50;;;-0.80;99.90;;;;;;5093656;28;20444;-82
2023/01/22 00:52:59;;;;;;;0.40;0.40;;;-0.80;99.90;;;;;;5093390;28;20452;-82
2023/01/22 00:55:26;;;;;;;1.80;1.17;;;-0.80;99.90;;;;;;5093639;28;20443;-82
2023/01/22 00:57:54;;;;;;;0.30;0.20;;;-0.80;99.90;;;;;;5093367;28;20447;-82
2023/01/22 01:00:21;;;;;;;0.30;0.20;;;-0.80;99.90;;;;;;5093627;28;20463;-82
2023/01/22 01:05:33;;;;;;;0.53;0.53;;;-0.80;99.90;;;;;;5093421;28;20471;-82
2023/01/22 01:07:59;;;;;;;0.30;0.30;;;-0.70;99.90;;;;;;5093329;28;20444;-82
2023/01/22 01:10:26;;;;;;;0.30;0.20;;;-0.80;99.90;;;;;;5093533;28;20522;-82
2023/01/22 01:12:54;;;;;;;0.47;0.47;;;-0.70;99.90;;;;;;5093539;28;20449;-82
2023/01/22 01:15:21;;;;;;;0.50;0.50;;;-0.80;99.90;;;;;;5092993;28;20860;-82
2023/01/22 01:17:47;;;;;;;0.30;0.30;;;-0.70;99.90;;;;;;5093514;28;20429;-82
2023/01/22 01:20:15;;;;;;;0.80;0.60;;;-0.80;99.90;;;;;;5093439;28;20456;-82
2023/01/22 01:22:42;;;;;;;0.63;0.63;;;-0.80;99.90;;;;;;5093408;28;20495;-82
2023/01/22 01:25:08;;;;;;;0.30;0.30;;;-0.70;99.90;;;;;;5093285;28;20480;-82
2023/01/22 01:27:35;;;;;;;0.80;0.43;;;-0.70;99.90;;;;;;5093338;28;20419;-82
2023/01/22 01:30:04;;;;;;;0.30;0.30;;;-0.70;99.90;;;;;;5093398;28;20444;-82
2023/01/22 01:32:30;;;;;;;0.30;0.30;;;-0.70;99.90;;;;;;5093408;28;20455;-82
2023/01/22 01:34:57;;;;;;;0.43;0.43;;;-0.70;99.90;;;;;;5092994;28;21102;-82
2023/01/22 01:37:24;;;;;;;1.23;1.23;;;-0.70;99.90;;;;;;5093297;28;20420;-82
2023/01/22 01:39:51;;;;;;;0.50;0.40;;;-0.70;99.90;;;;;;5093237;28;20449;-82
2023/01/22 01:42:24;;;;;;;0.40;0.40;;;-0.70;99.90;;;;;;5093229;28;20887;-82
2023/01/22 01:45:26;;;;;;;0.30;0.20;;;-0.70;99.90;;;;;;5093141;28;20768;-82
2023/01/22 01:48:00;;;;;;;0.30;0.20;;;-0.60;99.90;;;;;;5093220;28;20451;-82
2023/01/22 01:50:28;;;;;;;0.30;0.30;;;-0.70;99.90;;;;;;5093216;28;20791;-82
2023/01/22 01:52:57;;;;;;;0.40;0.40;;;-0.70;99.90;;;;;;5093169;28;20444;-82
2023/01/22 01:55:27;;;;;;;0.30;0.30;;;-0.60;99.90;;;;;;5092739;28;20444;-82
2023/01/22 01:57:56;;;;;;;0.30;0.20;;;-0.60;99.90;;;;;;5092771;28;20479;-82
2023/01/22 02:00:27;;;;;;;0.43;0.40;;;-0.60;99.90;;;;;;5093374;28;20448;-82
2023/01/22 02:02:54;;;;;;;0.60;0.60;;;-0.60;99.90;;;;;;5096695;28;20425;-82
2023/01/22 02:05:22;;;;;;;0.30;0.30;;;-0.60;99.90;;;;;;5096699;28;20491;-82
2023/01/22 02:07:49;;;;;;;0.30;0.20;;;-0.50;99.90;;;;;;5096822;28;20444;-82
2023/01/22 02:10:16;;;;;;;0.30;0.30;;;-0.60;99.90;;;;;;5097316;28;20452;-82
2023/01/22 02:12:42;;;;;;;0.30;0.30;;;-0.60;99.90;;;;;;5096300;28;20943;-82
2023/01/22 02:15:10;;;;;;;0.80;0.60;;;-0.60;99.90;;;;;;5096175;28;21024;-82
2023/01/22 02:17:38;;;;;;;0.30;0.30;;;-0.50;99.90;;;;;;5096607;28;20459;-82
2023/01/22 02:20:06;;;;;;;0.30;0.30;;;-0.60;99.90;;;;;;5096620;28;20457;-82
2023/01/22 02:22:37;;;;;;;0.30;0.30;;;-0.60;99.90;;;;;;5097276;28;20423;-82
2023/01/22 02:25:04;;;;;;;1.27;0.50;;;-0.50;99.90;;;;;;5096067;28;20826;-82
2023/01/22 02:27:31;;;;;;;0.40;0.37;;;-0.50;99.90;;;;;;5096428;28;20453;-82
2023/01/22 02:29:58;;;;;;;0.30;0.30;;;-0.60;99.90;;;;;;5097778;28;20971;-81
2023/01/22 02:32:24;;;;;;;0.30;0.30;;;-0.60;99.90;;;;;;5099154;28;20447;-82
2023/01/22 02:34:51;;;;;;;0.40;0.40;;;-0.60;99.90;;;;;;5096167;28;20838;-82
2023/01/22 02:37:18;;;;;;;0.30;0.30;;;-0.60;99.90;;;;;;5096731;28;20440;-82
2023/01/22 02:39:46;;;;;;;0.50;0.50;;;-0.60;99.90;;;;;;5096663;28;20456;-82
2023/01/22 02:42:12;;;;;;;0.30;0.30;;;-0.60;99.90;;;;;;5096574;28;20456;-82
2023/01/22 02:44:39;;;;;;;0.37;0.37;;;-0.60;99.90;;;;;;5096267;28;20813;-82
2023/01/22 02:47:06;;;;;;;0.67;0.67;;;-0.60;99.90;;;;;;5096459;28;20481;-82
2023/01/22 02:49:33;;;;;;;0.60;0.60;;;-0.60;99.90;;;;;;5096116;28;20440;-82
2023/01/22 02:51:59;;;;;;;0.43;0.43;;;-0.60;99.90;;;;;;5096352;28;20433;-82
2023/01/22 02:54:26;;;;;;;0.40;0.33;;;-0.50;99.90;;;;;;5096374;28;20935;-82
2023/01/22 02:56:55;;;;;;;0.30;0.27;;;-0.50;99.90;;;;;;5096357;28;20452;-82
2023/01/22 02:59:22;;;;;;;0.30;0.20;;;-0.50;99.90;;;;;;5096273;28;20444;-82
2023/01/22 03:01:49;;;;;;;0.40;0.40;;;-0.50;99.90;;;;;;5096174;28;20455;-82
2023/01/22 03:04:16;;;;;;;0.40;0.30;;;-0.50;99.90;;;;;;5096687;28;20882;-82
2023/01/22 03:06:45;;;;;;;0.30;0.30;;;-0.50;99.90;;;;;;5095828;28;20480;-82
2023/01/22 03:09:13;;;;;;;0.30;0.30;;;-0.50;99.90;;;;;;5097311;28;20447;-82
2023/01/22 03:11:41;;;;;;;0.30;0.30;;;-0.50;99.90;;;;;;5096166;28;20449;-82
2023/01/22 03:22:24;;;;;;;1.33;0.80;;;-0.50;99.90;;;;;;5096037;28;20447;-82
2023/01/22 03:24:51;;;;;;;0.40;0.40;;;-0.50;99.90;;;;;;5095397;28;20465;-82
2023/01/22 03:27:20;;;;;;;0.50;0.50;;;-0.50;99.90;;;;;;5095299;28;20521;-82
2023/01/22 03:29:48;;;;;;;0.30;0.30;;;-0.50;99.90;;;;;;5095297;28;20456;-82
2023/01/22 03:32:15;;;;;;;0.30;0.30;;;-0.50;99.90;;;;;;5095208;28;20819;-82
2023/01/22 03:34:42;;;;;;;0.40;0.40;;;-0.50;99.90;;;;;;5094863;28;20963;-82
2023/01/22 03:37:11;;;;;;;0.67;0.30;;;-0.50;99.90;;;;;;5095291;28;20475;-82
2023/01/22 03:39:39;;;;;;;0.30;0.20;;;-0.40;99.90;;;;;;5094769;28;20936;-82
2023/01/22 03:42:06;;;;;;;0.40;0.33;;;-0.40;99.90;;;;;;5095549;28;20452;-82
2023/01/22 03:44:32;;;;;;;0.30;0.30;;;-0.40;99.90;;;;;;5094909;28;20444;-82
2023/01/22 03:47:00;;;;;;;0.83;0.70;;;-0.40;99.90;;;;;;5094999;28;20489;-82
2023/01/22 03:49:27;;;;;;;1.60;0.70;;;-0.40;99.90;;;;;;5094877;28;20820;-82
2023/01/22 03:51:54;;;;;;;0.50;0.47;;;-0.40;99.90;;;;;;5094873;28;20451;-82
2023/01/22 03:54:21;;;;;;;1.60;0.90;;;-0.40;99.90;;;;;;5094709;28;20460;-82
2023/01/22 03:56:48;;;;;;;0.30;0.20;;;-0.40;99.90;;;;;;5094673;28;20475;-82
2023/01/22 03:59:14;;;;;;;0.40;0.40;;;-0.40;99.90;;;;;;5094392;28;20959;-82
2023/01/22 04:01:41;;;;;;;0.97;0.57;;;-0.40;99.90;;;;;;5094662;28;20445;-82
2023/01/22 04:04:09;;;;;;;0.30;0.30;;;-0.40;99.90;;;;;;5094264;28;20940;-82
2023/01/22 04:06:36;;;;;;;1.50;1.40;;;-0.40;99.90;;;;;;5094423;28;20491;-82
2023/01/22 04:09:03;;;;;;;0.40;0.30;;;-0.40;99.90;;;;;;5094197;28;20955;-82
2023/01/22 04:11:29;;;;;;;0.50;0.50;;;-0.40;99.90;;;;;;5094502;28;20452;-82
2023/01/22 04:13:56;;;;;;;0.33;0.33;;;-0.40;99.90;;;;;;5094146;28;20507;-82
2023/01/22 04:16:23;;;;;;;0.40;0.30;;;-0.40;99.90;;;;;;5094291;28;20465;-82
2023/01/22 04:18:50;;;;;;;0.30;0.30;;;-0.40;99.90;;;;;;5094288;28;20475;-82
2023/01/22 04:21:18;;;;;;;0.60;0.60;;;-0.50;99.90;;;;;;5094256;28;20456;-82
2023/01/22 04:23:44;;;;;;;6.97;0.90;;;-0.40;99.90;;;;;;5093726;28;20460;-82
2023/01/22 04:26:11;;;;;;;0.30;0.30;;;-0.40;99.90;;;;;;5093792;28;20488;-82
2023/01/22 04:28:38;;;;;;;0.50;0.50;;;-0.40;99.90;;;;;;5094152;28;20449;-82
2023/01/22 04:31:07;;;;;;;0.77;0.73;;;-0.40;99.90;;;;;;5093802;28;20941;-82
2023/01/22 04:33:34;;;;;;;4.00;0.73;;;-0.40;99.90;;;;;;5094009;28;20440;-82
2023/01/22 04:36:00;;;;;;;0.40;0.40;;;-0.40;99.90;;;;;;5093927;28;20467;-82
2023/01/22 04:38:29;;;;;;;0.30;0.30;;;-0.40;99.90;;;;;;5093807;28;21001;-82
2023/01/22 04:40:55;;;;;;;0.80;0.77;;;-0.40;99.90;;;;;;5093949;28;20816;-82
2023/01/22 04:43:22;;;;;;;0.40;0.40;;;-0.40;99.90;;;;;;5093630;28;20894;-82
2023/01/22 04:45:49;;;;;;;0.97;0.77;;;-0.40;99.90;;;;;;5093667;28;20475;-82
2023/01/22 04:48:16;;;;;;;0.30;0.30;;;-0.40;99.90;;;;;;5094701;28;20505;-82
2023/01/22 04:50:43;;;;;;;4.80;0.90;;;-0.40;99.90;;;;;;5094315;28;20424;-82
2023/01/22 04:53:10;;;;;;;1.40;1.30;;;-0.40;99.90;;;;;;5093859;28;20427;-82
2023/01/22 04:55:40;;;;;;;0.30;0.30;;;-0.40;99.90;;;;;;5093542;28;20521;-82
2023/01/22 04:58:07;;;;;;;1.43;1.33;;;-0.40;99.90;;;;;;5093429;28;20458;-82
2023/01/22 05:00:34;;;;;;;0.70;0.70;;;-0.40;99.90;;;;;;5093358;28;21009;-82
2023/01/22 05:03:02;;;;;;;0.37;0.33;;;-0.40;99.90;;;;;;5093758;28;20432;-82
2023/01/22 05:05:30;;;;;;;0.30;0.30;;;-0.40;99.90;;;;;;5093518;28;20460;-82
2023/01/22 05:07:59;;;;;;;0.33;0.27;;;-0.40;99.90;;;;;;5093597;28;20480;-82
2023/01/22 05:10:26;;;;;;;0.60;0.60;;;-0.40;99.90;;;;;;5093562;28;20456;-82
2023/01/22 05:12:54;;;;;;;0.30;0.27;;;-0.40;99.90;;;;;;5093531;28;20448;-82
2023/01/22 05:15:21;;;;;;;0.53;0.53;;;-0.40;99.90;;;;;;5092923;28;20975;-82
2023/01/22 05:17:47;;;;;;;0.30;0.30;;;-0.40;99.90;;;;;;5093496;28;20452;-82
2023/01/22 05:20:14;;;;;;;0.30;0.30;;;-0.30;99.90;;;;;;5093475;28;20423;-82
2023/01/22 05:22:41;;;;;;;0.40;0.40;;;-0.30;99.90;;;;;;5093462;28;20451;-82
2023/01/22 05:25:08;;;;;;;0.30;0.30;;;-0.40;99.90;;;;;;5093295;28;20476;-82
2023/01/22 05:27:35;;;;;;;0.40;0.40;;;-0.40;99.90;;;;;;5093304;28;20492;-82
2023/01/22 05:30:04;;;;;;;1.73;0.37;;;-0.30;99.90;;;;;;5093385;28;20468;-82
2023/01/22 05:32:30;;;;;;;0.30;0.30;;;-0.40;99.90;;;;;;5093039;28;20958;-82
2023/01/22 05:34:57;;;;;;;0.30;0.20;;;-0.40;99.90;;;;;;5093261;28;20472;-82
2023/01/22 05:37:24;;;;;;;0.60;0.60;;;-0.30;99.90;;;;;;5096900;28;20444;-82
2023/01/22 05:39:50;;;;;;;1.13;1.13;;;-0.30;99.90;;;;;;5097521;28;20452;-82
2023/01/22 05:42:17;;;;;;;0.30;0.30;;;-0.30;99.90;;;;;;5097127;28;20429;-82
2023/01/22 05:44:44;;;;;;;0.30;0.30;;;-0.30;99.90;;;;;;5097198;28;20423;-82
2023/01/22 05:47:13;;;;;;;0.40;0.40;;;-0.30;99.90;;;;;;5097177;28;20481;-82
2023/01/22 05:49:39;;;;;;;0.30;0.30;;;-0.30;99.90;;;;;;5097188;28;20513;-82
2023/01/22 05:52:09;;;;;;;1.77;0.97;;;-0.30;99.90;;;;;;5097134;28;20449;-82
2023/01/22 05:54:36;;;;;;;0.70;0.70;;;-0.30;99.90;;;;;;5096700;28;20821;-82
2023/01/22 05:57:03;;;;;;;0.30;0.30;;;-0.30;99.90;;;;;;5097096;28;20444;-82
2023/01/22 05:59:30;;;;;;;0.33;0.33;;;-0.30;99.90;;;;;;5097206;28;20426;-82
2023/01/22 06:01:57;;;;;;;1.37;0.73;;;-0.30;99.90;;;;;;5096720;28;20960;-82
2023/01/22 06:04:25;;;;;;;0.40;0.33;;;-0.30;99.90;;;;;;5099563;28;20430;-82
2023/01/22 06:06:51;;;;;;;0.37;0.27;;;-0.30;99.90;;;;;;5096772;28;20480;-82
2023/01/22 06:09:18;;;;;;;0.70;0.50;;;-0.30;99.90;;;;;;5096437;28;20855;-82
2023/01/22 06:11:45;;;;;;;1.27;1.17;;;-0.30;99.90;;;;;;5096823;28;20441;-82
2023/01/22 06:14:12;;;;;;;2.83;1.00;;;-0.30;99.90;;;;;;5096357;28;20491;-82
2023/01/22 06:16:38;;;;;;;0.40;0.30;;;-0.30;99.90;;;;;;5096301;28;21006;-82
2023/01/22 06:19:05;;;;;;;0.73;0.40;;;-0.30;99.90;;;;;;5096687;28;20444;-82
2023/01/22 06:21:33;;;;;;;0.30;0.30;;;-0.30;99.90;;;;;;5096248;28;20947;-82
2023/01/22 06:24:00;;;;;;;0.30;0.30;;;-0.30;99.90;;;;;;5096601;28;20453;-82
2023/01/22 06:26:27;;;;;;;0.40;0.40;;;-0.30;99.90;;;;;;5096378;28;20515;-82
2023/01/22 06:28:54;;;;;;;0.30;0.30;;;-0.30;99.90;;;;;;5096442;28;20448;-82
2023/01/22 06:31:20;;;;;;;0.40;0.40;;;-0.30;99.90;;;;;;5096177;28;20452;-82
2023/01/22 06:33:47;;;;;;;0.30;0.30;;;-0.40;99.90;;;;;;5096492;28;20452;-82
2023/01/22 06:36:14;;;;;;;0.60;0.60;;;-0.40;99.90;;;;;;5095993;28;20974;-82
2023/01/22 06:38:42;;;;;;;0.30;0.30;;;-0.40;99.90;;;;;;5096262;28;20444;-81
2023/01/22 06:41:09;;;;;;;0.33;0.33;;;-0.40;99.90;;;;;;5096264;28;20448;-82
2023/01/22 06:43:37;;;;;;;4.50;1.20;;;-0.40;99.90;;;;;;5096208;28;20464;-82
2023/01/22 06:46:04;;;;;;;0.30;0.20;;;-0.30;99.90;;;;;;5095800;28;20472;-82
2023/01/22 06:48:31;;;;;;;0.30;0.30;;;-0.30;99.90;;;;;;5095927;28;20507;-82
2023/01/22 06:50:58;;;;;;;0.30;0.30;;;-0.30;99.90;;;;;;5096050;28;20448;-82
2023/01/22 06:53:25;;;;;;;0.30;0.30;;;-0.30;99.90;;;;;;5096031;28;20445;-82
2023/01/22 06:55:53;;;;;;;0.80;0.80;;;-0.40;99.90;;;;;;5095894;28;20525;-82
2023/01/22 06:58:20;;;;;;;1.17;0.60;;;-0.30;99.90;;;;;;5095600;28;20455;-82
2023/01/22 07:00:47;;;;;;;0.60;0.40;;;-0.30;99.90;;;;;;5095838;28;20448;-82
2023/01/22 07:03:14;;;;;;;0.40;0.40;;;-0.30;99.90;;;;;;5095786;28;20440;-82
2023/01/22 07:05:40;;;;;;;0.30;0.30;;;-0.30;99.90;;;;;;5096261;28;20468;-82
2023/01/22 07:08:07;;;;;;;0.53;0.53;;;-0.30;99.90;;;;;;5096494;28;20503;-82
2023/01/22 07:10:34;;;;;;;4.30;1.13;;;-0.30;99.90;;;;;;5095764;28;20453;-82
2023/01/22 07:13:03;;;;;;;0.30;0.30;;;-0.30;99.90;;;;;;5095599;28;20460;-82
2023/01/22 07:15:29;;;;;;;0.40;0.40;;;-0.30;99.90;;;;;;5095031;28;20545;-81
2023/01/22 07:17:56;;;;;;;0.30;0.27;;;-0.30;99.90;;;;;;5095571;28;20464;-82
2023/01/22 07:20:24;;;;;;;0.87;0.87;;;-0.30;99.90;;;;;;5095519;28;20449;-82
2023/01/22 07:22:51;;;;;;;0.80;0.80;;;-0.20;99.90;;;;;;5095385;28;20472;-82
2023/01/22 07:25:18;;;;;;;0.30;0.23;;;-0.20;99.90;;;;;;5095339;28;20468;-82
2023/01/22 07:27:44;;;;;;;0.67;0.67;;;-0.20;99.90;;;;;;5095313;28;20481;-81
2023/01/22 07:30:13;;;;;;;0.70;0.70;;;-0.20;99.90;;;;;;5095119;28;20429;-82
2023/01/22 07:32:40;;;;;;;0.30;0.30;;;-0.20;99.90;;;;;;5095404;28;20431;-81
2023/01/22 07:35:08;;;;;;;0.40;0.40;;;-0.20;99.90;;;;;;5094865;28;20507;-81
2023/01/22 07:37:36;;;;;;;0.30;0.30;;;-0.20;99.90;;;;;;5095209;28;20445;-82
2023/01/22 07:40:03;;;;;;;0.50;0.50;;;-0.10;99.90;;;;;;5095099;28;20522;-82
2023/01/22 07:42:30;;;;;;;0.73;0.60;;;-0.10;99.90;;;;;;5094981;28;20460;-81
2023/01/22 07:44:57;;;;;;;0.30;0.30;;;-0.10;99.90;;;;;;5094940;28;20468;-81
2023/01/22 07:47:25;;;;;;;0.80;0.80;;;-0.10;99.90;;;;;;5094904;28;20455;-82
2023/01/22 07:49:51;;;;;;;0.80;0.80;;;-0.20;99.90;;;;;;5094866;28;20763;-82
2023/01/22 07:52:18;;;;;;;1.13;0.83;;;-0.20;99.90;;;;;;5094809;28;20456;-81
2023/01/22 07:54:45;;;;;;;0.30;0.30;;;-0.20;99.90;;;;;;5094724;28;20465;-82
2023/01/22 07:57:14;;;;;;;1.23;0.50;;;-0.20;99.90;;;;;;5094719;28;20475;-81
2023/01/22 07:59:41;;;;;;;0.50;0.40;;;-0.20;99.90;;;;;;5093531;28;20819;-82
2023/01/22 08:02:11;;;;;;;0.83;0.73;;;-0.20;99.90;;;;;;5094274;28;20940;-81
2023/01/22 08:04:39;;;;;;;0.30;0.30;;;-0.10;99.90;;;;;;5094519;28;20444;-82
2023/01/22 08:07:06;;;;;;;0.30;0.30;;;-0.10;99.90;;;;;;5094191;28;20479;-82
2023/01/22 08:09:36;;;;;;;0.40;0.40;;;-0.10;99.90;;;;;;5094403;28;20452;-81
2023/01/22 08:12:03;;;;;;;0.40;0.40;;;-0.10;99.90;;;;;;5094604;28;20429;-81
2023/01/22 08:14:30;;;;;;;0.70;0.70;;;-0.10;99.90;;;;;;5094080;28;20491;-82
2023/01/22 08:16:57;;;;;;;2.50;0.63;;;0.00;99.90;;;;;;5094100;28;20800;-81
2023/01/22 08:19:23;;;;;;;0.30;0.20;;;0.00;99.90;;;;;;5094375;28;20452;-82
2023/01/22 08:21:51;;;;;;;0.30;0.30;;;0.00;99.90;;;;;;5094273;28;20456;-81
2023/01/22 08:24:18;;;;;;;0.30;0.30;;;0.00;99.90;;;;;;5094144;28;20444;-81
2023/01/22 08:26:45;;;;;;;0.30;0.27;;;0.10;99.90;;;;;;5093872;28;20464;-81
2023/01/22 08:29:12;;;;;;;0.40;0.30;;;0.10;99.90;;;;;;5093949;28;20461;-81
2023/01/22 08:31:38;;;;;;;0.40;0.40;;;0.20;99.90;;;;;;5093537;28;20445;-81
2023/01/22 08:34:05;;;;;;;0.60;0.40;;;0.20;99.90;;;;;;5093711;28;20457;-81
2023/01/22 08:36:33;;;;;;;0.97;0.60;;;0.10;99.90;;;;;;5094048;28;20477;-82
2023/01/22 08:39:01;;;;;;;2.57;2.43;;;0.20;99.90;;;;;;5094087;28;20448;-82
2023/01/22 08:41:28;;;;;;;0.60;0.30;;;0.20;99.90;;;;;;5093785;28;20448;-82
2023/01/22 08:43:54;;;;;;;0.30;0.30;;;0.30;99.90;;;;;;5093991;28;20828;-81
2023/01/22 08:46:21;;;;;;;0.67;0.67;;;0.30;99.90;;;;;;5093817;28;20472;-81
2023/01/22 08:48:49;;;;;;;0.40;0.40;;;0.30;99.90;;;;;;5093506;28;20979;-81
2023/01/22 08:51:16;;;;;;;4.13;0.70;;;0.30;99.90;;;;;;5094187;28;20460;-81
2023/01/22 08:53:42;;;;;;;0.57;0.57;;;0.30;99.90;;;;;;5093770;28;20458;-81
2023/01/22 08:56:11;;;;;;;0.50;0.30;;;0.30;99.90;;;;;;5093447;28;20975;-81
2023/01/22 08:58:37;;;;;;;0.30;0.30;;;0.30;99.90;;;;;;5093440;28;20827;-81
2023/01/22 09:01:04;;;;;;;0.37;0.30;;;0.30;99.90;;;;;;5093769;28;20449;-81
2023/01/22 09:03:31;;;;;;;0.40;0.40;;;0.30;99.90;;;;;;5093697;28;20459;-81
2023/01/22 09:05:59;;;;;;;1.23;0.60;;;0.20;99.90;;;;;;5093555;28;20475;-81
2023/01/22 09:08:25;;;;;;;0.47;0.47;;;0.30;99.90;;;;;;5093271;28;21030;-81
2023/01/22 09:10:52;;;;;;;0.30;0.20;;;0.30;99.90;;;;;;5093430;28;20459;-81
2023/01/22 09:13:20;;;;;;;0.90;0.30;;;0.40;99.90;;;;;;5093354;28;20449;-81
2023/01/22 09:15:47;;;;;;;0.30;0.30;;;0.40;99.90;;;;;;5093157;28;20472;-81
2023/01/22 09:18:14;;;;;;;0.30;0.30;;;0.30;99.90;;;;;;5093197;28;20449;-81
2023/01/22 09:20:40;;;;;;;0.50;0.50;;;0.40;99.90;;;;;;5093180;28;20998;-81
2023/01/22 09:23:07;;;;;;;0.30;0.30;;;0.40;99.90;;;;;;5093470;28;20444;-81
2023/01/22 09:25:34;;;;;;;0.30;0.30;;;0.40;99.90;;;;;;5093321;28;20468;-81
2023/01/22 09:28:03;;;;;;;0.30;0.20;;;0.40;99.90;;;;;;5093328;28;20488;-81
2023/01/22 09:30:32;;;;;;;0.30;0.20;;;0.40;99.90;;;;;;5093627;28;20510;-81
2023/01/22 09:32:58;;;;;;;0.43;0.40;;;0.40;99.90;;;;;;5093391;28;20452;-81
2023/01/22 09:35:27;;;;;;;0.53;0.53;;;0.40;99.90;;;;;;5093143;28;21010;-81
2023/01/22 09:37:54;;;;;;;0.30;0.30;;;0.40;99.90;;;;;;5093313;28;20449;-81
2023/01/22 09:40:27;;;;;;;0.83;0.83;;;0.40;99.90;;;;;;5093248;28;20452;-81
2023/01/22 09:43:00;;;;;;;0.70;0.43;;;0.40;99.90;;;;;;5093354;28;20437;-80
2023/01/22 09:45:28;;;;;;;0.73;0.73;;;0.50;99.90;;;;;;5093268;28;20457;-81
2023/01/22 09:47:59;;;;;;;0.30;0.30;;;0.50;99.90;;;;;;5093076;28;20484;-81
2023/01/22 09:50:29;;;;;;;0.97;0.80;;;0.50;99.90;;;;;;5093246;28;20432;-81
2023/01/22 09:53:02;;;;;;;0.30;0.30;;;0.50;99.90;;;;;;5093313;28;20441;-81
2023/01/22 09:55:36;;;;;;;0.70;0.70;;;0.60;99.90;;;;;;5096130;28;20464;-82
2023/01/22 09:58:09;;;;;;;0.40;0.40;;;0.60;99.90;;;;;;5093218;28;20429;-82
2023/01/22 10:00:39;;;;;;;1.77;1.67;;;0.60;99.90;;;;;;5093134;28;20799;-82
2023/01/22 10:03:13;;;;;;;2.23;0.50;;;0.60;99.90;;;;;;5093102;28;20440;-82
2023/01/22 10:05:43;;;;;;;1.27;1.17;;;0.70;99.90;;;;;;5092790;28;20471;-81
2023/01/22 10:08:13;;;;;;;0.60;0.60;;;0.70;99.90;;;;;;5093004;28;20476;-81
2023/01/22 10:10:40;;;;;;;0.53;0.30;;;0.70;99.90;;;;;;5092972;28;20823;-81
2023/01/22 10:13:15;;;;;;;0.63;0.40;;;0.80;99.90;;;;;;5092986;28;20444;-82
2023/01/22 10:15:41;;;;;;;1.13;0.73;;;0.80;99.90;;;;;;5092647;28;21017;-79
2023/01/22 10:18:33;;;;;;;0.30;0.20;;;0.80;99.90;;;;;;5093125;28;20447;-80
2023/01/22 10:21:04;;;;;;;1.07;1.07;;;0.90;99.90;;;;;;5092841;28;20555;-81
2023/01/22 10:23:32;;;;;;;0.30;0.30;;;1.00;99.90;;;;;;5096418;28;20425;-81
2023/01/22 10:26:07;;;;;;;0.40;0.40;;;1.10;99.90;;;;;;5096199;28;20468;-81
2023/01/22 10:28:35;;;;;;;0.53;0.53;;;1.20;99.90;;;;;;5096063;28;20504;-81
2023/01/22 10:31:02;;;;;;;0.40;0.40;;;1.30;99.90;;;;;;5096486;28;20440;-82
2023/01/22 10:33:30;;;;;;;0.63;0.40;;;1.40;99.90;;;;;;5096414;28;20517;-82
2023/01/22 10:35:57;;;;;;;0.30;0.30;;;1.40;99.90;;;;;;5096273;28;20468;-81
2023/01/22 10:38:27;;;;;;;0.70;0.37;;;1.50;99.90;;;;;;5096058;28;20962;-81
2023/01/22 10:40:56;;;;;;;1.00;0.97;;;1.50;99.90;;;;;;5096295;28;20430;-82
2023/01/22 10:43:31;;;;;;;0.40;0.40;;;1.50;99.90;;;;;;5096448;28;20445;-82
2023/01/22 10:46:03;;;;;;;0.30;0.20;;;1.50;99.90;;;;;;5096148;28;20438;-82
2023/01/22 10:48:34;;;;;;;0.30;0.30;;;1.50;99.90;;;;;;5095804;28;20515;-82
2023/01/22 10:51:11;;;;;;;0.87;0.87;;;1.50;99.90;;;;;;5096116;28;20433;-82
2023/01/22 10:53:44;;;;;;;0.40;0.40;;;1.60;99.90;;;;;;5096014;28;20428;-82
2023/01/22 10:56:12;;;;;;;0.30;0.30;;;1.60;99.90;;;;;;5095909;28;20464;-82
2023/01/22 10:58:46;;;;;;;0.50;0.40;;;1.50;99.90;;;;;;5095576;28;20447;-82
2023/01/22 11:01:26;;;;;;;0.30;0.30;;;1.50;99.90;;;;;;5095969;28;20429;-83
2023/01/22 11:03:54;;;;;;;0.50;0.50;;;1.60;99.90;;;;;;5095958;28;20447;-83
2023/01/22 11:06:27;;;;;;;2.10;0.40;;;1.60;99.90;;;;;;5095860;28;20652;-84
2023/01/22 11:09:00;;;;;;;0.30;0.30;;;1.60;99.90;;;;;;5095818;28;20476;-83
2023/01/22 11:11:31;;;;;;;0.40;0.40;;;1.50;99.90;;;;;;5095829;28;20437;-84
2023/01/22 11:14:03;;;;;;;0.43;0.40;;;1.50;99.90;;;;;;5095407;28;20537;-84
2023/01/22 11:16:34;;;;;;;7.40;0.97;;;1.50;99.90;;;;;;5095355;28;20964;-84
2023/01/22 11:19:06;;;;;;;0.50;0.50;;;1.40;99.90;;;;;;5095830;28;20516;-84
2023/01/22 11:21:37;;;;;;;0.30;0.30;;;1.40;99.90;;;;;;5095820;28;20436;-84
2023/01/22 11:24:09;;;;;;;0.73;0.73;;;1.50;99.90;;;;;;5095550;28;20429;-84
2023/01/22 11:27:08;;;;;;;0.70;0.50;;;1.40;99.90;;;;;;5095139;28;21002;-84
2023/01/22 11:29:57;;;;;;;0.60;0.37;;;1.30;99.90;;;;;;5095363;28;20519;-84
2023/01/22 11:32:48;;;;;;;0.70;0.70;;;1.30;99.90;;;;;;5095251;28;20433;-84
2023/01/22 11:35:22;;;;;;;0.30;0.20;;;1.20;99.90;;;;;;5095274;28;20470;-83
2023/01/22 11:38:02;;;;;;;0.87;0.87;;;1.20;99.90;;;;;;5095203;28;20429;-84
2023/01/22 11:40:31;;;;;;;0.30;0.30;;;1.20;99.90;;;;;;5095149;28;20433;-83
2023/01/22 11:43:24;;;;;;;0.30;0.30;;;1.30;99.90;;;;;;5095081;28;20508;-83
2023/01/22 11:46:21;;;;;;;0.30;0.20;;;1.30;99.90;;;;;;5094971;28;20471;-82
2023/01/22 11:49:00;;;;;;;1.00;1.00;;;1.40;99.90;;;;;;5094003;28;20515;-83
2023/01/22 11:51:35;;;;;;;0.43;0.43;;;1.40;99.90;;;;;;5094997;28;20826;-83
2023/01/22 11:54:27;;;;;;;1.70;0.60;;;1.30;99.90;;;;;;5094871;28;20436;-80
2023/01/22 11:57:08;;;;;;;0.97;0.97;;;1.30;99.90;;;;;;5094795;28;20420;-82
2023/01/22 12:00:03;;;;;;;0.40;0.30;;;1.40;99.90;;;;;;5094610;28;20468;-82
2023/01/22 12:02:55;;;;;;;0.40;0.40;;;1.40;99.90;;;;;;5094740;28;20524;-81
2023/01/22 12:05:33;;;;;;;0.30;0.30;;;1.40;99.90;;;;;;5094438;28;20475;-81
2023/01/22 12:08:16;;;;;;;0.53;0.53;;;1.50;99.90;;;;;;5094662;28;20452;-81
2023/01/22 12:11:05;;;;;;;0.50;0.50;;;1.40;99.90;;;;;;5094563;28;20433;-81
2023/01/22 12:13:47;;;;;;;0.37;0.37;;;1.50;99.90;;;;;;5094341;28;20826;-81
2023/01/22 12:16:22;;;;;;;0.50;0.50;;;1.50;99.90;;;;;;5094378;28;20472;-81
2023/01/22 12:19:14;;;;;;;0.67;0.60;;;1.60;99.90;;;;;;5094385;28;20436;-82
2023/01/22 12:21:55;;;;;;;0.40;0.40;;;1.50;99.90;;;;;;5094080;28;20948;-82
2023/01/22 12:24:29;;;;;;;0.83;0.50;;;1.40;99.90;;;;;;5094483;28;20444;-82
2023/01/22 12:27:01;;;;;;;0.30;0.30;;;1.40;99.90;;;;;;5094473;28;20440;-82
2023/01/22 12:29:33;;;;;;;0.87;0.87;;;1.40;99.90;;;;;;5094242;28;20545;-82
2023/01/22 12:32:09;;;;;;;0.60;0.60;;;1.30;99.90;;;;;;5093935;28;20429;-82
2023/01/22 12:34:43;;;;;;;0.40;0.40;;;1.20;99.90;;;;;;5094904;28;20479;-82
2023/01/22 12:37:15;;;;;;;1.17;1.17;;;1.20;99.90;;;;;;5094151;28;20433;-82
2023/01/22 12:39:50;;;;;;;1.23;1.17;;;1.30;99.90;;;;;;5093832;28;20433;-76
2023/01/22 12:42:25;;;;;;;0.30;0.30;;;1.30;99.90;;;;;;5094026;28;20791;-81
2023/01/22 12:45:02;;;;;;;0.30;0.30;;;1.30;99.90;;;;;;5093464;28;20507;-81
2023/01/22 12:47:37;;;;;;;1.13;0.57;;;1.30;99.90;;;;;;5094147;28;20431;-81
2023/01/22 12:50:04;;;;;;;0.37;0.37;;;1.30;99.90;;;;;;5093870;28;20471;-81
2023/01/22 12:52:36;;;;;;;0.67;0.50;;;1.30;99.90;;;;;;5093815;28;20444;-81
2023/01/22 12:55:21;;;;;;;0.30;0.20;;;1.30;99.90;;;;;;5093825;28;20475;-81
2023/01/22 12:57:48;;;;;;;0.30;0.20;;;1.30;99.90;;;;;;5093862;28;20441;-82
2023/01/22 13:00:29;;;;;;;0.40;0.40;;;1.40;99.90;;;;;;5093738;28;20445;-81
2023/01/22 13:02:56;;;;;;;0.30;0.30;;;1.40;99.90;;;;;;5093425;28;20916;-81
2023/01/22 13:05:40;;;;;;;0.30;0.30;;;1.40;99.90;;;;;;5093577;28;20479;-77
2023/01/22 13:08:26;;;;;;;0.80;0.60;;;1.40;99.90;;;;;;5093912;28;20425;-83
2023/01/22 13:10:56;;;;;;;0.30;0.20;;;1.30;99.90;;;;;;5093736;28;20421;-80
2023/01/22 13:13:28;;;;;;;1.17;0.70;;;1.40;99.90;;;;;;5093601;28;20433;-80